Terminal Aerodrome Forecast
Issued by NWS Sterling, VA

Current Version | Previous Version | Graphics & Text | Print | Product List | Glossary On
Versions: 1 2 3 4 5 6 7 8 9 10 11 12 13 14 15 16
000
FTUS41 KLWX 262320
TAFMRB
TAF
KMRB 262320Z 2700/2724 30008KT P6SM SCT090
     FM270300 VRB04KT P6SM SCT120
     FM271000 00000KT 6SM -SHRA BR OVC050
     FM271500 05004KT P6SM VCSH OVC020=

USA.gov is the U.S. government's official web portal to all federal, state and local government web resources and services.